createdAt,value
2022-10-12T00:00:42.012Z,29.10
2022-10-12T00:03:13.308Z,27.70
2022-10-12T00:05:43.594Z,30.13
2022-10-12T00:08:16.209Z,35.07
2022-10-12T00:10:47.226Z,34.53
2022-10-12T00:13:17.206Z,32.67
2022-10-12T00:15:47.267Z,33.27
2022-10-12T00:18:17.254Z,33.47
2022-10-12T00:20:47.879Z,31.00
2022-10-12T00:23:20.447Z,35.10
2022-10-12T00:25:50.432Z,41.33
2022-10-12T00:28:20.469Z,31.70
2022-10-12T00:30:50.489Z,40.53
2022-10-12T00:33:20.454Z,32.00
2022-10-12T00:35:50.407Z,33.67
2022-10-12T00:38:23.069Z,32.87
2022-10-12T00:40:53.541Z,36.20
2022-10-12T00:43:34.434Z,41.23
2022-10-12T00:46:09.973Z,35.90
2022-10-12T00:48:40.594Z,33.73
2022-10-12T00:51:12.603Z,34.03
2022-10-12T00:53:52.389Z,34.47
2022-10-12T00:56:28.419Z,36.30
2022-10-12T00:59:02.745Z,29.27
2022-10-12T01:01:37.578Z,33.93
2022-10-12T01:04:10.187Z,33.13
2022-10-12T01:06:40.445Z,35.67
2022-10-12T01:09:13.027Z,46.20
2022-10-12T01:11:43.111Z,34.03
2022-10-12T01:14:13.489Z,41.10
2022-10-12T01:16:53.341Z,37.50
2022-10-12T01:19:57.283Z,36.80
2022-10-12T01:22:28.227Z,36.93
2022-10-12T01:25:11.373Z,41.30
2022-10-12T01:27:50.328Z,34.50
2022-10-12T01:30:25.921Z,37.70
2022-10-12T01:33:25.132Z,44.13
2022-10-12T01:36:08.090Z,38.93
2022-10-12T01:38:50.973Z,46.97
2022-10-12T01:41:27.748Z,39.83
2022-10-12T01:43:57.756Z,47.60
2022-10-12T01:46:49.321Z,39.40
2022-10-12T01:49:26.547Z,44.53
2022-10-12T01:52:24.133Z,40.40
2022-10-12T01:55:19.642Z,35.77
2022-10-12T01:58:23.044Z,35.40
2022-10-12T02:01:05.224Z,41.70
2022-10-12T02:03:46.172Z,46.77
2022-10-12T02:06:21.308Z,46.90
2022-10-12T02:09:02.929Z,34.97
2022-10-12T02:11:37.140Z,35.03
2022-10-12T02:14:18.629Z,42.67
2022-10-12T02:16:55.833Z,49.87
2022-10-12T02:19:33.763Z,39.93
2022-10-12T02:22:08.621Z,42.20
2022-10-12T02:24:47.174Z,51.90
2022-10-12T02:27:21.080Z,50.47
2022-10-12T02:29:52.237Z,37.80
2022-10-12T02:32:29.844Z,43.63
2022-10-12T02:35:11.551Z,49.07
2022-10-12T02:37:47.839Z,50.43
2022-10-12T02:40:26.974Z,36.67
2022-10-12T02:43:10.531Z,46.40
2022-10-12T02:45:46.172Z,43.23
2022-10-12T02:48:23.289Z,41.33
2022-10-12T02:50:59.846Z,37.33
2022-10-12T02:53:33.128Z,48.60
2022-10-12T02:56:07.446Z,41.57
2022-10-12T02:58:37.708Z,43.20
2022-10-12T03:01:08.214Z,37.67
2022-10-12T03:03:38.275Z,35.07
2022-10-12T03:06:11.633Z,39.17
2022-10-12T03:08:41.806Z,37.10
2022-10-12T03:11:16.223Z,41.00
2022-10-12T03:13:46.231Z,31.13
2022-10-12T03:16:16.325Z,46.97
2022-10-12T03:18:46.329Z,41.33
2022-10-12T03:21:19.726Z,43.57
2022-10-12T03:23:49.829Z,38.60
2022-10-12T03:26:19.891Z,43.77
2022-10-12T03:28:50.176Z,39.97
2022-10-12T03:31:20.798Z,43.47
2022-10-12T03:33:50.837Z,31.97
2022-10-12T03:36:23.466Z,41.97
2022-10-12T03:38:53.504Z,48.90
2022-10-12T03:41:23.526Z,42.40
2022-10-12T03:43:53.746Z,39.97
2022-10-12T03:46:23.754Z,35.77
2022-10-12T03:48:53.858Z,33.50
2022-10-12T03:51:27.144Z,37.37
2022-10-12T03:53:57.162Z,36.27
2022-10-12T03:56:27.260Z,37.00
2022-10-12T03:58:57.297Z,40.37
2022-10-12T04:01:27.526Z,38.43
2022-10-12T04:03:58.057Z,36.40
2022-10-12T04:06:30.701Z,38.80
2022-10-12T04:09:00.691Z,42.77
2022-10-12T04:11:30.907Z,34.17
2022-10-12T04:14:00.947Z,39.57
2022-10-12T04:16:31.261Z,34.17
2022-10-12T04:19:01.471Z,40.97
2022-10-12T04:21:34.923Z,43.13
2022-10-12T04:24:05.106Z,42.60
2022-10-12T04:26:35.323Z,45.93
2022-10-12T04:29:05.389Z,37.37
2022-10-12T04:31:35.510Z,39.57
2022-10-12T04:34:05.554Z,40.63
2022-10-12T04:36:38.335Z,41.87
2022-10-12T04:39:08.405Z,35.03
2022-10-12T04:41:39.899Z,37.33
2022-10-12T04:44:10.823Z,41.87
2022-10-12T04:46:40.984Z,38.30
2022-10-12T04:49:11.019Z,41.37
2022-10-12T04:51:43.660Z,39.00
2022-10-12T04:54:14.452Z,38.87
2022-10-12T04:56:47.895Z,45.30
2022-10-12T04:59:18.497Z,41.87
2022-10-12T05:01:48.851Z,43.37
2022-10-12T05:04:18.989Z,37.53
2022-10-12T05:06:51.652Z,33.50
2022-10-12T05:09:22.136Z,39.00
2022-10-12T05:11:52.112Z,44.43
2022-10-12T05:14:22.121Z,38.70
2022-10-12T05:16:52.113Z,46.67
2022-10-12T05:19:22.175Z,52.70
2022-10-12T05:21:55.798Z,44.60
2022-10-12T05:24:25.793Z,51.67
2022-10-12T05:26:56.660Z,41.90
2022-10-12T05:29:26.758Z,48.57
2022-10-12T05:31:56.969Z,50.20
2022-10-12T05:34:27.104Z,43.60
2022-10-12T05:37:00.367Z,37.37
2022-10-12T05:39:30.504Z,50.00
2022-10-12T05:42:00.489Z,38.90
2022-10-12T05:44:30.473Z,47.60
2022-10-12T05:47:00.597Z,40.90
2022-10-12T05:49:31.175Z,40.60
2022-10-12T05:52:04.093Z,46.50
2022-10-12T05:54:34.099Z,47.67
2022-10-12T05:57:04.209Z,67.57
2022-10-12T05:59:34.258Z,55.53
2022-10-12T06:02:04.554Z,62.83
2022-10-12T06:04:34.633Z,72.90
2022-10-12T06:07:07.343Z,65.87
2022-10-12T06:09:38.996Z,86.03
2022-10-12T06:12:09.858Z,69.97
2022-10-12T06:14:39.842Z,46.63
2022-10-12T06:17:09.910Z,53.50
2022-10-12T06:19:40.221Z,57.43
2022-10-12T06:22:12.946Z,59.63
2022-10-12T06:24:42.897Z,65.03
2022-10-12T06:27:14.009Z,61.27
2022-10-12T06:29:44.060Z,47.13
2022-10-12T06:32:14.071Z,57.37
2022-10-12T06:34:44.097Z,49.80
2022-10-12T06:37:44.557Z,46.23
2022-10-12T06:40:09.809Z,46.17
2022-10-12T06:42:40.149Z,55.87
2022-10-12T06:45:12.130Z,48.20
2022-10-12T06:47:42.290Z,47.37
2022-10-12T06:50:13.509Z,44.30
2022-10-12T06:52:46.294Z,38.37
2022-10-12T06:55:16.530Z,47.40
2022-10-12T06:57:46.696Z,41.53
2022-10-12T07:00:18.575Z,41.00
2022-10-12T07:02:51.868Z,48.43
2022-10-12T07:05:23.257Z,44.37
2022-10-12T07:07:56.386Z,48.20
2022-10-12T07:10:28.263Z,41.20
2022-10-12T07:12:58.362Z,31.00
2022-10-12T07:15:28.508Z,32.67
2022-10-12T07:17:58.494Z,28.17
2022-10-12T07:20:28.470Z,26.70
2022-10-12T07:23:01.093Z,33.30
2022-10-12T07:25:31.146Z,28.97
2022-10-12T07:28:01.145Z,32.03
2022-10-12T07:30:31.150Z,28.57
2022-10-12T07:33:01.142Z,29.67
2022-10-12T07:35:31.133Z,29.27
2022-10-12T07:38:03.812Z,29.00
2022-10-12T07:40:34.625Z,27.30
2022-10-12T07:43:15.604Z,26.23
2022-10-12T07:45:46.880Z,32.43
2022-10-12T07:48:16.934Z,29.13
2022-10-12T07:50:46.986Z,28.80
2022-10-12T07:53:19.714Z,33.00
2022-10-12T07:55:50.238Z,29.73
2022-10-12T07:58:20.236Z,28.57
2022-10-12T08:00:50.307Z,26.90
2022-10-12T08:03:20.454Z,25.73
2022-10-12T08:05:50.783Z,26.03
2022-10-12T08:08:23.853Z,24.10
2022-10-12T08:10:53.853Z,25.00
2022-10-12T08:13:25.680Z,23.13
2022-10-12T08:15:55.667Z,24.03
2022-10-12T08:18:25.822Z,23.97
2022-10-12T08:20:56.266Z,26.50
2022-10-12T08:23:29.351Z,27.00
2022-10-12T08:26:16.133Z,21.80
2022-10-12T08:28:46.808Z,28.07
2022-10-12T08:31:19.637Z,26.93
2022-10-12T08:33:49.668Z,28.80
2022-10-12T08:36:19.732Z,27.07
2022-10-12T08:38:57.831Z,25.20
2022-10-12T08:41:43.312Z,23.07
2022-10-12T08:44:38.787Z,26.67
2022-10-12T08:47:17.960Z,25.30
2022-10-12T08:49:50.322Z,25.83
2022-10-12T08:52:33.468Z,24.77
2022-10-12T08:55:22.339Z,25.67
2022-10-12T08:57:52.527Z,24.53
2022-10-12T09:00:23.085Z,26.03
2022-10-12T09:03:11.774Z,27.77
2022-10-12T09:05:51.708Z,23.77
2022-10-12T09:12:18.664Z,22.63
2022-10-12T09:14:52.701Z,24.33
2022-10-12T09:17:32.902Z,24.97
2022-10-12T09:20:09.956Z,21.70
2022-10-12T09:22:42.038Z,25.40
2022-10-12T09:25:17.419Z,21.47
2022-10-12T09:27:50.802Z,22.30
2022-10-12T09:30:23.683Z,22.83
2022-10-12T09:35:51.124Z,17.93
2022-10-12T09:38:21.906Z,21.30
2022-10-12T09:40:51.901Z,20.53
2022-10-12T09:43:22.073Z,26.10
2022-10-12T09:45:52.739Z,19.03
2022-10-12T09:48:26.520Z,25.30
2022-10-12T09:51:03.363Z,18.87
2022-10-12T09:53:37.747Z,21.13
2022-10-12T09:56:16.017Z,23.60
2022-10-12T09:58:56.521Z,20.43
2022-10-12T10:01:43.853Z,19.03
2022-10-12T10:04:20.109Z,21.70
2022-10-12T10:06:53.537Z,21.30
2022-10-12T10:09:36.161Z,19.23
2022-10-12T10:15:59.402Z,17.93
2022-10-12T10:41:22.925Z,21.57
2022-10-12T10:43:53.599Z,16.20
2022-10-12T10:46:31.100Z,20.47
2022-10-12T10:49:07.000Z,17.97
2022-10-12T10:54:42.802Z,20.50
2022-10-12T10:57:20.101Z,16.43
2022-10-12T11:00:02.230Z,20.53
2022-10-12T11:05:39.263Z,17.60
2022-10-12T11:08:20.248Z,21.40
2022-10-12T11:10:59.057Z,20.43
2022-10-12T11:13:49.439Z,17.50
2022-10-12T11:19:23.525Z,18.67
2022-10-12T11:25:11.574Z,16.33
2022-10-12T11:27:44.452Z,21.40
2022-10-12T11:30:21.158Z,24.20
2022-10-12T11:35:47.808Z,16.97
2022-10-12T11:38:27.097Z,16.93
2022-10-12T11:44:10.132Z,14.70
2022-10-12T11:46:47.049Z,16.90
2022-10-12T11:49:32.255Z,12.37
2022-10-12T11:55:23.679Z,13.93
2022-10-12T11:57:57.377Z,18.47
2022-10-12T12:03:33.349Z,13.30
2022-10-12T12:06:50.223Z,16.70
2022-10-12T12:09:35.811Z,15.80
2022-10-12T12:15:22.726Z,16.10
2022-10-12T12:21:10.083Z,12.47
2022-10-12T12:23:46.237Z,13.70
2022-10-12T12:29:24.775Z,12.93
2022-10-12T12:31:59.761Z,11.50
2022-10-12T12:34:31.315Z,14.20
2022-10-12T12:37:12.326Z,20.17
2022-10-12T12:39:45.899Z,13.97
2022-10-12T12:45:55.505Z,18.93
2022-10-12T12:51:17.405Z,18.10
2022-10-12T12:53:53.873Z,16.73
2022-10-12T12:56:35.620Z,14.50
2022-10-12T13:09:12.171Z,21.37
2022-10-12T13:12:26.641Z,13.23
2022-10-12T13:15:32.667Z,13.83
2022-10-12T13:21:23.389Z,12.20
2022-10-12T13:24:03.872Z,18.53
2022-10-12T13:26:35.181Z,15.23
2022-10-12T13:29:18.109Z,13.17
2022-10-12T13:32:07.083Z,12.93
2022-10-12T13:37:19.766Z,16.90
2022-10-12T13:39:50.467Z,13.27
2022-10-12T13:42:28.751Z,17.23
2022-10-12T13:45:00.077Z,18.40
2022-10-12T13:47:33.355Z,16.40
2022-10-12T13:50:03.747Z,13.30
2022-10-12T13:52:38.946Z,16.13
2022-10-12T13:55:34.184Z,15.63
2022-10-12T14:00:51.201Z,19.63
2022-10-12T14:06:04.885Z,15.80
2022-10-12T14:08:38.162Z,22.93
2022-10-12T14:16:40.241Z,16.90
2022-10-12T14:19:34.607Z,17.93
2022-10-12T14:22:06.220Z,18.83
2022-10-12T14:27:35.210Z,20.03
2022-10-12T14:30:20.322Z,14.73
2022-10-12T14:32:53.940Z,18.03
2022-10-12T14:35:30.267Z,16.27
2022-10-12T14:38:00.472Z,18.40
2022-10-12T14:46:03.150Z,16.47
2022-10-12T14:48:33.133Z,22.77
2022-10-12T14:51:03.225Z,18.30
2022-10-12T14:53:33.587Z,21.40
2022-10-12T14:56:03.666Z,22.30
2022-10-12T14:58:33.697Z,21.23
2022-10-12T15:01:06.458Z,14.07
2022-10-12T15:03:37.721Z,17.10
2022-10-12T15:06:08.164Z,24.53
2022-10-12T15:08:38.164Z,14.50
2022-10-12T15:13:50.845Z,21.70
2022-10-12T15:16:26.248Z,23.00
2022-10-12T15:18:56.700Z,14.77
2022-10-12T15:21:26.709Z,18.43
2022-10-12T15:23:57.140Z,26.40
2022-10-12T15:26:27.186Z,20.23
2022-10-12T15:28:59.982Z,21.30
2022-10-12T15:31:30.228Z,18.53
2022-10-12T15:34:00.330Z,17.13
2022-10-12T15:36:30.327Z,15.60
2022-10-12T15:39:00.347Z,21.63
2022-10-12T15:41:30.778Z,18.63
2022-10-12T15:44:03.537Z,22.43
2022-10-12T15:46:33.586Z,19.00
2022-10-12T15:49:03.659Z,21.10
2022-10-12T15:51:36.306Z,23.20
2022-10-12T15:54:06.425Z,20.00
2022-10-12T15:56:38.723Z,19.43
2022-10-12T15:59:11.615Z,15.47
2022-10-12T16:01:43.229Z,20.80
2022-10-12T16:04:17.322Z,19.87
2022-10-12T16:06:47.375Z,15.23
2022-10-12T16:09:17.436Z,16.00
2022-10-12T16:11:47.556Z,23.13
2022-10-12T16:14:20.237Z,21.53
2022-10-12T16:16:50.266Z,26.00
2022-10-12T16:19:20.274Z,23.73
2022-10-12T16:21:50.333Z,27.10
2022-10-12T16:24:20.503Z,20.83
2022-10-12T16:26:50.568Z,26.80
2022-10-12T16:29:23.273Z,18.00
2022-10-12T16:31:53.314Z,20.97
2022-10-12T16:34:23.463Z,21.00
2022-10-12T16:36:55.452Z,21.73
2022-10-12T16:39:27.747Z,27.90
2022-10-12T16:41:57.821Z,27.83
2022-10-12T16:44:30.541Z,23.27
2022-10-12T16:47:01.976Z,23.03
2022-10-12T16:49:32.121Z,25.23
2022-10-12T16:52:02.194Z,19.00
2022-10-12T16:54:32.362Z,20.63
2022-10-12T16:57:03.184Z,23.20
2022-10-12T16:59:35.991Z,28.03
2022-10-12T17:02:06.077Z,24.63
2022-10-12T17:04:36.355Z,21.10
2022-10-12T17:07:06.577Z,18.53
2022-10-12T17:09:36.623Z,19.43
2022-10-12T17:12:07.076Z,23.67
2022-10-12T17:14:39.856Z,32.50
2022-10-12T17:17:09.901Z,24.07
2022-10-12T17:19:41.553Z,27.03
2022-10-12T17:22:14.367Z,26.50
2022-10-12T17:24:45.908Z,26.67
2022-10-12T17:27:17.216Z,19.60
2022-10-12T17:29:50.095Z,28.93
2022-10-12T17:32:20.149Z,21.43
2022-10-12T17:34:50.153Z,31.13
2022-10-12T17:37:21.960Z,24.67
2022-10-12T17:39:52.443Z,24.37
2022-10-12T17:42:23.187Z,25.47
2022-10-12T17:44:55.809Z,29.10
2022-10-12T17:47:25.861Z,31.87
2022-10-12T17:49:55.845Z,26.07
2022-10-12T17:52:25.908Z,32.73
2022-10-12T17:54:55.964Z,23.80
2022-10-12T17:57:25.982Z,29.63
2022-10-12T17:59:58.596Z,27.97
2022-10-12T18:02:28.767Z,24.07
2022-10-12T18:04:58.784Z,24.80
2022-10-12T18:07:28.862Z,27.23
2022-10-12T18:12:28.881Z,37.30
2022-10-12T18:15:01.612Z,34.57
2022-10-12T18:17:31.730Z,28.13
2022-10-12T18:20:01.850Z,27.20
2022-10-12T18:22:32.640Z,23.97
2022-10-12T18:25:02.684Z,31.03
2022-10-12T18:27:32.727Z,29.40
2022-10-12T18:30:05.435Z,35.10
2022-10-12T18:32:35.499Z,26.77
2022-10-12T18:35:05.656Z,27.77
2022-10-12T18:37:35.765Z,25.07
2022-10-12T18:40:06.029Z,22.93
2022-10-12T18:42:36.029Z,28.47
2022-10-12T18:45:09.867Z,27.90
2022-10-12T18:47:40.475Z,37.47
2022-10-12T18:50:12.293Z,25.13
2022-10-12T18:52:42.367Z,29.90
2022-10-12T18:55:12.958Z,32.87
2022-10-12T18:57:43.057Z,37.40
2022-10-12T19:00:16.712Z,33.33
2022-10-12T19:02:46.785Z,30.07
2022-10-12T19:05:16.834Z,35.67
2022-10-12T19:07:46.893Z,38.97
2022-10-12T19:10:17.019Z,36.83
2022-10-12T19:12:47.072Z,31.77
2022-10-12T19:15:19.944Z,35.10
2022-10-12T19:17:50.036Z,26.30
2022-10-12T19:20:20.365Z,28.40
2022-10-12T19:22:50.372Z,29.20
2022-10-12T19:25:21.914Z,33.57
2022-10-12T19:27:52.047Z,39.53
2022-10-12T19:30:24.755Z,33.00
2022-10-12T19:32:54.894Z,28.27
2022-10-12T19:35:25.115Z,31.03
2022-10-12T19:37:55.151Z,28.97
2022-10-12T19:40:25.315Z,38.00
2022-10-12T19:42:55.330Z,34.83
2022-10-12T19:45:28.269Z,36.53
2022-10-12T19:47:58.392Z,36.10
2022-10-12T19:50:28.445Z,36.43
2022-10-12T19:52:58.525Z,39.00
2022-10-12T19:55:28.587Z,40.43
2022-10-12T19:57:58.676Z,35.53
2022-10-12T20:00:31.553Z,41.23
2022-10-12T20:03:01.588Z,38.93
2022-10-12T20:05:31.630Z,37.97
2022-10-12T20:08:01.678Z,36.70
2022-10-12T20:10:31.784Z,36.43
2022-10-12T20:13:01.906Z,39.80
2022-10-12T20:15:35.512Z,39.63
2022-10-12T20:18:05.920Z,37.93
2022-10-12T20:20:35.993Z,40.93
2022-10-12T20:23:06.084Z,32.13
2022-10-12T20:25:36.154Z,28.77
2022-10-12T20:28:06.665Z,49.83
2022-10-12T20:30:39.971Z,28.83
2022-10-12T20:33:10.733Z,41.37
2022-10-12T20:35:40.815Z,39.73
2022-10-12T20:38:10.859Z,41.03
2022-10-12T20:40:40.995Z,35.33
2022-10-12T20:43:11.074Z,45.33
2022-10-12T20:45:44.011Z,38.33
2022-10-12T20:48:14.038Z,34.97
2022-10-12T20:50:44.114Z,39.53
2022-10-12T20:53:14.160Z,42.97
2022-10-12T20:55:44.378Z,54.10
2022-10-12T20:58:14.363Z,49.80
2022-10-12T21:00:47.043Z,58.67
2022-10-12T21:03:17.177Z,43.20
2022-10-12T21:05:47.239Z,36.70
2022-10-12T21:08:17.302Z,40.00
2022-10-12T21:10:49.638Z,33.43
2022-10-12T21:13:19.636Z,40.00
2022-10-12T21:15:56.715Z,39.10
2022-10-12T21:18:27.592Z,39.60
2022-10-12T21:21:02.587Z,38.13
2022-10-12T21:23:32.650Z,33.80
2022-10-12T21:26:10.855Z,42.07
2022-10-12T21:28:41.040Z,41.67
2022-10-12T21:31:15.248Z,40.50
2022-10-12T21:33:45.756Z,39.80
2022-10-12T21:36:18.825Z,40.27
2022-10-12T21:38:50.158Z,39.27
2022-10-12T21:41:22.892Z,41.03
2022-10-12T21:43:54.283Z,45.50
2022-10-12T21:46:30.255Z,45.27
2022-10-12T21:49:02.460Z,42.03
2022-10-12T21:51:34.604Z,37.43
2022-10-12T21:54:04.778Z,44.53
2022-10-12T21:56:38.555Z,38.33
2022-10-12T21:59:09.522Z,36.07
2022-10-12T22:01:43.221Z,37.50
2022-10-12T22:04:17.441Z,39.50
2022-10-12T22:06:47.699Z,39.40
2022-10-12T22:09:20.404Z,45.83
2022-10-12T22:11:51.072Z,47.03
2022-10-12T22:14:22.119Z,38.80
2022-10-12T22:16:54.736Z,45.97
2022-10-12T22:19:25.369Z,44.40
2022-10-12T22:21:56.250Z,46.67
2022-10-12T22:24:30.838Z,39.33
2022-10-12T22:27:01.451Z,39.33
2022-10-12T22:29:31.496Z,41.83
2022-10-12T22:32:05.622Z,42.50
2022-10-12T22:34:35.825Z,36.30
2022-10-12T22:37:05.885Z,49.37
2022-10-12T22:39:35.987Z,47.70
2022-10-12T22:42:06.204Z,40.23
2022-10-12T22:44:36.262Z,44.47
2022-10-12T22:47:08.982Z,43.27
2022-10-12T22:49:38.993Z,44.07
2022-10-12T22:52:08.993Z,49.87
2022-10-12T22:54:39.651Z,45.87
2022-10-12T22:57:09.706Z,52.77
2022-10-12T22:59:40.083Z,42.90
2022-10-12T23:02:12.666Z,47.23
2022-10-12T23:04:42.643Z,41.73
2022-10-12T23:07:12.727Z,47.50
2022-10-12T23:09:44.428Z,54.00
2022-10-12T23:12:14.389Z,51.40
2022-10-12T23:14:46.170Z,49.30
2022-10-12T23:17:18.771Z,53.87
2022-10-12T23:19:48.852Z,43.90
2022-10-12T23:22:19.247Z,50.40
2022-10-12T23:24:49.631Z,42.37
2022-10-12T23:27:20.555Z,40.13
2022-10-12T23:29:51.215Z,41.40
2022-10-12T23:32:23.904Z,38.50
2022-10-12T23:34:53.898Z,44.10
2022-10-12T23:37:24.065Z,38.07
2022-10-12T23:39:54.334Z,37.83
2022-10-12T23:42:24.497Z,41.10
2022-10-12T23:44:55.406Z,37.73
2022-10-12T23:47:28.396Z,29.40
2022-10-12T23:49:58.431Z,29.90
2022-10-12T23:52:29.090Z,29.33
2022-10-12T23:54:59.122Z,26.20
2022-10-12T23:57:46.246Z,28.60
